createdAt,value
2018-03-02T00:00:18.657Z,7.50
2018-03-02T00:02:46.865Z,8.50
2018-03-02T00:05:14.342Z,7.23
2018-03-02T00:07:41.757Z,7.50
2018-03-02T00:10:09.264Z,8.73
2018-03-02T00:12:36.760Z,8.40
2018-03-02T00:15:04.965Z,9.00
2018-03-02T00:17:32.452Z,9.17
2018-03-02T00:20:00.005Z,7.83
2018-03-02T00:22:27.467Z,8.03
2018-03-02T00:24:55.665Z,8.23
2018-03-02T00:27:23.108Z,8.57
2018-03-02T00:29:50.556Z,7.30
2018-03-02T00:32:18.759Z,8.40
2018-03-02T00:34:46.224Z,8.80
2018-03-02T00:37:13.777Z,7.33
2018-03-02T00:39:41.241Z,9.07
2018-03-02T00:42:08.698Z,10.23
2018-03-02T00:44:36.164Z,9.90
2018-03-02T00:47:03.616Z,6.40
2018-03-02T00:49:31.164Z,7.40
2018-03-02T00:51:58.576Z,9.50
2018-03-02T00:54:26.777Z,7.90
2018-03-02T00:56:54.252Z,9.37
2018-03-02T00:59:21.721Z,10.03
2018-03-02T01:01:49.166Z,9.63
2018-03-02T01:04:16.626Z,7.73
2018-03-02T01:06:44.082Z,9.63
2018-03-02T01:09:11.538Z,9.67
2018-03-02T01:11:39.065Z,11.13
2018-03-02T01:14:06.451Z,10.83
2018-03-02T01:16:33.924Z,10.00
2018-03-02T01:19:01.384Z,10.63
2018-03-02T01:21:28.819Z,10.20
2018-03-02T01:23:56.306Z,10.47
2018-03-02T01:26:23.736Z,10.63
2018-03-02T01:28:51.172Z,12.53
2018-03-02T01:31:18.605Z,13.60
2018-03-02T01:33:46.121Z,10.93
2018-03-02T01:36:13.588Z,11.03
2018-03-02T01:38:41.028Z,10.63
2018-03-02T01:41:08.595Z,10.57
2018-03-02T01:43:36.050Z,10.30
2018-03-02T01:46:03.517Z,10.80
2018-03-02T01:48:30.973Z,10.07
2018-03-02T01:50:58.415Z,11.23
2018-03-02T01:53:25.844Z,10.47
2018-03-02T01:55:53.297Z,10.17
2018-03-02T01:58:21.518Z,8.13
2018-03-02T02:00:49.065Z,12.30
2018-03-02T02:03:16.536Z,11.03
2018-03-02T02:05:43.984Z,11.83
2018-03-02T02:08:11.443Z,11.50
2018-03-02T02:10:38.897Z,10.87
2018-03-02T02:13:06.336Z,11.07
2018-03-02T02:15:33.804Z,11.50
2018-03-02T02:18:01.365Z,10.80
2018-03-02T02:20:28.938Z,11.13
2018-03-02T02:22:56.497Z,10.37
2018-03-02T02:25:23.941Z,10.67
2018-03-02T02:27:51.399Z,11.90
2018-03-02T02:30:18.816Z,11.40
2018-03-02T02:32:47.071Z,10.93
2018-03-02T02:35:14.484Z,10.63
2018-03-02T02:37:41.914Z,10.13
2018-03-02T02:40:09.420Z,10.90
2018-03-02T02:42:36.959Z,11.57
2018-03-02T02:45:04.424Z,11.00
2018-03-02T02:47:31.886Z,10.03
2018-03-02T02:49:59.328Z,11.77
2018-03-02T02:52:26.771Z,10.83
2018-03-02T02:54:54.217Z,11.73
2018-03-02T02:57:22.413Z,9.67
2018-03-02T02:59:49.883Z,11.33
2018-03-02T03:02:17.339Z,11.33
2018-03-02T03:04:44.769Z,12.37
2018-03-02T03:07:12.265Z,11.53
2018-03-02T03:09:39.734Z,12.07
2018-03-02T03:12:07.368Z,11.47
2018-03-02T03:14:34.784Z,13.03
2018-03-02T03:17:03.003Z,11.30
2018-03-02T03:19:30.450Z,11.03
2018-03-02T03:21:57.898Z,13.13
2018-03-02T03:24:25.332Z,12.30
2018-03-02T03:26:53.561Z,13.27
2018-03-02T03:29:21.017Z,10.90
2018-03-02T03:31:48.465Z,12.53
2018-03-02T03:34:16.027Z,12.80
2018-03-02T03:36:43.498Z,12.00
2018-03-02T03:39:11.043Z,12.47
2018-03-02T03:41:38.496Z,11.93
2018-03-02T03:44:05.932Z,10.50
2018-03-02T03:46:33.425Z,12.90
2018-03-02T03:49:00.970Z,12.47
2018-03-02T03:51:28.384Z,12.67
2018-03-02T03:53:56.732Z,13.33
2018-03-02T03:56:24.181Z,10.63
2018-03-02T03:58:51.614Z,15.87
2018-03-02T04:01:19.071Z,15.17
2018-03-02T04:03:46.536Z,11.73
2018-03-02T04:06:13.968Z,11.70
2018-03-02T04:08:41.453Z,12.73
2018-03-02T04:11:08.880Z,11.97
2018-03-02T04:13:36.375Z,13.40
2018-03-02T04:16:03.813Z,12.17
2018-03-02T04:18:31.293Z,13.77
2018-03-02T04:20:58.733Z,13.67
2018-03-02T04:23:26.191Z,14.10
2018-03-02T04:25:53.612Z,13.90
2018-03-02T04:28:21.117Z,12.90
2018-03-02T04:30:48.561Z,15.73
2018-03-02T04:33:16.010Z,12.97
2018-03-02T04:35:43.580Z,14.13
2018-03-02T04:38:11.044Z,17.20
2018-03-02T04:40:38.486Z,14.37
2018-03-02T04:43:05.947Z,14.57
2018-03-02T04:45:33.416Z,15.77
2018-03-02T04:48:00.841Z,14.37
2018-03-02T04:50:28.282Z,14.90
2018-03-02T04:52:56.605Z,13.23
2018-03-02T04:55:24.060Z,16.30
2018-03-02T04:57:51.517Z,16.07
2018-03-02T05:00:19.072Z,14.17
2018-03-02T05:02:46.536Z,12.30
2018-03-02T05:05:13.964Z,15.63
2018-03-02T05:07:41.441Z,16.93
2018-03-02T05:10:08.866Z,15.50
2018-03-02T05:12:37.080Z,14.17
2018-03-02T05:15:04.532Z,14.40
2018-03-02T05:17:31.998Z,17.03
2018-03-02T05:19:59.442Z,13.60
2018-03-02T05:22:27.014Z,16.47
2018-03-02T05:24:54.512Z,16.90
2018-03-02T05:27:22.761Z,15.23
2018-03-02T05:29:50.403Z,13.80
2018-03-02T05:32:17.816Z,15.43
2018-03-02T05:34:46.033Z,14.20
2018-03-02T05:37:13.512Z,12.70
2018-03-02T05:39:40.945Z,14.13
2018-03-02T05:42:08.504Z,15.10
2018-03-02T05:44:35.941Z,16.57
2018-03-02T05:47:03.432Z,15.60
2018-03-02T05:49:30.978Z,16.07
2018-03-02T05:51:58.408Z,18.00
2018-03-02T05:54:25.850Z,17.90
2018-03-02T05:56:53.280Z,13.83
2018-03-02T05:59:20.731Z,15.60
2018-03-02T06:01:48.173Z,19.73
2018-03-02T06:04:15.632Z,17.47
2018-03-02T06:06:43.082Z,17.30
2018-03-02T06:09:10.540Z,15.00
2018-03-02T06:11:37.986Z,16.63
2018-03-02T06:14:05.453Z,18.23
2018-03-02T06:16:32.921Z,18.67
2018-03-02T06:19:00.340Z,18.07
2018-03-02T06:21:27.824Z,14.43
2018-03-02T06:23:55.281Z,16.40
2018-03-02T06:26:22.838Z,17.00
2018-03-02T06:28:50.273Z,17.27
2018-03-02T06:31:17.706Z,15.47
2018-03-02T06:33:45.926Z,15.73
2018-03-02T06:36:13.380Z,14.23
2018-03-02T06:38:40.817Z,17.33
2018-03-02T06:41:08.253Z,20.50
2018-03-02T06:43:36.544Z,18.20
2018-03-02T06:46:04.129Z,14.70
2018-03-02T06:48:31.612Z,17.83
2018-03-02T06:50:59.262Z,16.33
2018-03-02T06:53:26.676Z,17.70
2018-03-02T06:55:54.189Z,18.87
2018-03-02T06:58:21.618Z,18.77
2018-03-02T07:00:49.052Z,15.27
2018-03-02T07:03:16.501Z,15.90
2018-03-02T07:05:44.701Z,16.53
2018-03-02T07:08:12.179Z,16.47
2018-03-02T07:10:39.620Z,16.03
2018-03-02T07:13:07.100Z,20.07
2018-03-02T07:15:34.573Z,15.23
2018-03-02T07:18:02.097Z,18.37
2018-03-02T07:20:29.532Z,17.93
2018-03-02T07:22:57.026Z,20.03
2018-03-02T07:25:24.464Z,16.17
2018-03-02T07:27:51.945Z,16.93
2018-03-02T07:30:19.482Z,17.00
2018-03-02T07:32:47.684Z,15.87
2018-03-02T07:35:15.187Z,17.70
2018-03-02T07:37:43.390Z,23.83
2018-03-02T07:40:10.832Z,20.73
2018-03-02T07:42:38.321Z,16.57
2018-03-02T07:45:05.865Z,17.83
2018-03-02T07:47:33.321Z,16.00
2018-03-02T07:50:00.796Z,21.17
2018-03-02T07:52:28.237Z,18.70
2018-03-02T07:54:55.726Z,20.23
2018-03-02T07:57:23.936Z,19.97
2018-03-02T07:59:52.246Z,18.27
2018-03-02T08:02:19.657Z,19.00
2018-03-02T08:04:47.865Z,19.30
2018-03-02T08:07:15.301Z,19.23
2018-03-02T08:09:43.588Z,16.70
2018-03-02T08:12:11.077Z,19.97
2018-03-02T08:14:38.511Z,17.13
2018-03-02T08:17:06.001Z,20.37
2018-03-02T08:19:33.448Z,16.37
2018-03-02T08:22:00.911Z,22.37
2018-03-02T08:24:28.351Z,23.30
2018-03-02T08:26:55.821Z,20.97
2018-03-02T08:29:23.248Z,18.60
2018-03-02T08:31:50.826Z,21.30
2018-03-02T08:34:18.256Z,17.97
2018-03-02T08:36:46.564Z,20.80
2018-03-02T08:39:13.986Z,16.93
2018-03-02T08:41:42.265Z,16.77
2018-03-02T08:44:10.467Z,21.83
2018-03-02T08:46:37.923Z,22.00
2018-03-02T08:49:05.342Z,17.10
2018-03-02T08:51:33.540Z,19.93
2018-03-02T08:54:01.038Z,22.10
2018-03-02T08:56:28.582Z,19.67
2018-03-02T08:58:56.028Z,18.77
2018-03-02T09:01:23.497Z,21.03
2018-03-02T09:03:50.949Z,17.20
2018-03-02T09:06:18.418Z,20.23
2018-03-02T09:08:45.960Z,19.53
2018-03-02T09:11:13.429Z,18.97
2018-03-02T09:13:40.864Z,20.80
2018-03-02T09:16:08.298Z,19.47
2018-03-02T09:18:36.526Z,18.83
2018-03-02T09:21:03.978Z,19.97
2018-03-02T09:23:31.420Z,20.27
2018-03-02T09:25:58.889Z,18.17
2018-03-02T09:28:26.437Z,20.47
2018-03-02T09:30:53.906Z,18.63
2018-03-02T09:33:21.358Z,19.00
2018-03-02T09:35:48.810Z,18.07
2018-03-02T09:38:16.233Z,18.83
2018-03-02T09:40:44.453Z,17.43
2018-03-02T09:43:11.877Z,19.03
2018-03-02T09:45:39.320Z,19.20
2018-03-02T09:48:07.632Z,19.77
2018-03-02T09:50:35.189Z,19.77
2018-03-02T09:53:02.621Z,21.80
2018-03-02T09:55:30.060Z,16.70
2018-03-02T09:57:58.382Z,20.93
2018-03-02T10:00:25.853Z,18.53
2018-03-02T10:02:53.319Z,19.27
2018-03-02T10:05:20.856Z,20.00
2018-03-02T10:07:48.336Z,19.63
2018-03-02T10:10:15.787Z,20.87
2018-03-02T10:12:43.212Z,16.93
2018-03-02T10:15:10.684Z,20.63
2018-03-02T10:17:38.144Z,19.37
2018-03-02T10:20:05.563Z,19.60
2018-03-02T10:22:33.770Z,19.90
2018-03-02T10:25:01.241Z,18.60
2018-03-02T10:27:28.685Z,20.50
2018-03-02T10:29:56.120Z,21.13
2018-03-02T10:32:24.432Z,19.70
2018-03-02T10:34:51.884Z,18.70
2018-03-02T10:37:19.326Z,17.90
2018-03-02T10:39:46.784Z,19.90
2018-03-02T10:42:14.252Z,20.63
2018-03-02T10:44:41.665Z,20.30
2018-03-02T10:47:09.882Z,21.50
2018-03-02T10:49:37.540Z,20.37
2018-03-02T10:52:04.960Z,17.00
2018-03-02T10:54:33.277Z,19.90
2018-03-02T10:57:00.740Z,20.83
2018-03-02T10:59:28.191Z,18.63
2018-03-02T11:01:55.624Z,21.97
2018-03-02T11:04:40.819Z,21.53
2018-03-02T11:07:08.244Z,19.93
2018-03-02T11:09:36.451Z,19.07
2018-03-02T11:12:03.900Z,19.50
2018-03-02T11:14:31.364Z,21.07
2018-03-02T11:16:58.781Z,18.50
2018-03-02T11:19:26.980Z,19.57
2018-03-02T11:21:54.468Z,20.87
2018-03-02T11:24:21.921Z,18.43
2018-03-02T11:26:49.428Z,20.67
2018-03-02T11:29:17.661Z,21.77
2018-03-02T11:31:45.203Z,20.57
2018-03-02T11:34:12.680Z,21.00
2018-03-02T11:36:40.167Z,17.93
2018-03-02T11:39:07.661Z,22.20
2018-03-02T11:41:35.170Z,21.37
2018-03-02T11:44:02.716Z,22.13
2018-03-02T11:46:30.253Z,18.90
2018-03-02T11:48:57.716Z,19.67
2018-03-02T11:51:25.174Z,21.93
2018-03-02T11:53:52.643Z,21.40
2018-03-02T11:56:20.183Z,23.20
2018-03-02T11:58:47.642Z,20.77
2018-03-02T12:01:15.132Z,20.13
2018-03-02T12:03:42.577Z,22.20
2018-03-02T12:06:10.216Z,20.43
2018-03-02T12:08:37.688Z,21.53
2018-03-02T12:11:05.234Z,20.47
2018-03-02T12:13:32.664Z,22.10
2018-03-02T12:16:00.865Z,18.40
2018-03-02T12:18:28.321Z,19.73
2018-03-02T12:20:55.793Z,21.33
2018-03-02T12:23:23.244Z,21.10
2018-03-02T12:25:50.797Z,20.03
2018-03-02T12:28:18.224Z,22.43
2018-03-02T12:30:46.424Z,22.70
2018-03-02T12:33:13.894Z,21.80
2018-03-02T12:35:41.441Z,23.63
2018-03-02T12:38:08.898Z,19.43
2018-03-02T12:40:36.356Z,21.63
2018-03-02T12:43:03.785Z,23.33
2018-03-02T12:45:32.089Z,21.33
2018-03-02T12:47:59.514Z,22.40
2018-03-02T12:50:27.823Z,21.40
2018-03-02T12:52:55.239Z,21.27
2018-03-02T12:55:23.465Z,21.60
2018-03-02T12:57:50.913Z,23.00
2018-03-02T13:00:18.372Z,22.87
2018-03-02T13:02:45.826Z,22.47
2018-03-02T13:05:13.248Z,19.73
2018-03-02T13:07:41.467Z,18.00
2018-03-02T13:10:08.912Z,17.90
2018-03-02T13:12:36.476Z,21.87
2018-03-02T13:15:03.885Z,21.20
2018-03-02T13:17:32.085Z,22.53
2018-03-02T13:19:59.561Z,22.50
2018-03-02T13:22:38.080Z,22.37
2018-03-02T13:25:05.516Z,23.53
2018-03-02T13:27:44.822Z,23.70
2018-03-02T13:30:12.442Z,23.60
2018-03-02T13:32:40.576Z,22.80
2018-03-02T13:35:10.333Z,23.03
2018-03-02T13:37:37.880Z,24.33
2018-03-02T13:40:17.208Z,24.23
2018-03-02T13:42:44.632Z,21.67
2018-03-02T13:45:12.839Z,23.47
2018-03-02T13:50:51.992Z,25.97
2018-03-02T13:53:19.469Z,25.47
2018-03-02T13:55:46.903Z,26.10
2018-03-02T13:58:14.328Z,24.20
2018-03-02T14:00:42.536Z,25.07
2018-03-02T14:03:22.085Z,23.63
2018-03-02T14:05:49.848Z,24.30
2018-03-02T14:08:17.300Z,24.37
2018-03-02T14:10:44.772Z,23.60
2018-03-02T14:13:12.215Z,23.73
2018-03-02T14:15:39.644Z,23.97
2018-03-02T14:18:07.148Z,24.03
2018-03-02T14:20:34.585Z,24.37
2018-03-02T14:23:02.021Z,26.13
2018-03-02T14:25:29.476Z,27.10
2018-03-02T14:27:56.955Z,22.03
2018-03-02T14:30:24.436Z,26.70
2018-03-02T14:32:51.836Z,24.23
2018-03-02T14:35:20.070Z,25.00
2018-03-02T14:37:47.527Z,25.40
2018-03-02T14:40:15.351Z,24.77
2018-03-02T14:42:42.837Z,25.70
2018-03-02T14:45:10.296Z,26.37
2018-03-02T14:47:37.724Z,23.93
2018-03-02T14:50:05.169Z,22.67
2018-03-02T14:52:33.381Z,25.83
2018-03-02T14:55:00.815Z,24.00
2018-03-02T14:57:28.265Z,24.90
2018-03-02T14:59:55.696Z,22.93
2018-03-02T15:02:23.167Z,26.87
2018-03-02T15:04:50.668Z,26.90
2018-03-02T15:07:18.130Z,27.93
2018-03-02T15:09:45.552Z,27.40
2018-03-02T15:12:12.985Z,27.80
2018-03-02T15:14:41.305Z,28.93
2018-03-02T15:17:08.768Z,26.10
2018-03-02T15:19:36.224Z,27.63
2018-03-02T15:22:03.780Z,26.67
2018-03-02T15:24:31.201Z,26.63
2018-03-02T15:26:59.413Z,28.37
2018-03-02T15:29:26.973Z,26.83
2018-03-02T15:31:54.388Z,26.87
2018-03-02T15:34:22.613Z,26.17
2018-03-02T15:36:50.046Z,25.30
2018-03-02T15:39:17.533Z,27.43
2018-03-02T15:41:45.090Z,28.43
2018-03-02T15:44:12.635Z,26.27
2018-03-02T15:46:40.044Z,20.70
2018-03-02T15:49:08.276Z,27.50
2018-03-02T15:51:35.826Z,27.80
2018-03-02T15:54:03.238Z,27.27
2018-03-02T15:56:30.673Z,28.23
2018-03-02T15:58:58.108Z,24.70
2018-03-02T16:01:25.536Z,25.57
2018-03-02T16:03:52.982Z,28.07
2018-03-02T16:06:20.465Z,25.93
2018-03-02T16:08:47.936Z,28.90
2018-03-02T16:11:15.483Z,27.87
2018-03-02T16:13:42.899Z,27.77
2018-03-02T16:16:11.216Z,26.00
2018-03-02T16:18:38.671Z,27.13
2018-03-02T16:21:06.233Z,26.97
2018-03-02T16:23:33.794Z,28.63
2018-03-02T16:26:01.231Z,25.93
2018-03-02T16:28:29.529Z,29.07
2018-03-02T16:30:56.992Z,26.30
2018-03-02T16:33:24.453Z,27.70
2018-03-02T16:35:52.014Z,26.37
2018-03-02T16:38:19.424Z,27.27
2018-03-02T16:40:47.660Z,23.43
2018-03-02T16:43:15.105Z,19.53
2018-03-02T16:45:42.540Z,27.33
2018-03-02T16:48:09.985Z,28.27
2018-03-02T16:50:37.416Z,29.00
2018-03-02T16:53:05.645Z,26.87
2018-03-02T16:55:33.112Z,25.07
2018-03-02T16:58:00.556Z,26.57
2018-03-02T17:00:28.009Z,29.00
2018-03-02T17:02:55.472Z,32.67
2018-03-02T17:05:23.024Z,29.23
2018-03-02T17:07:50.433Z,29.50
2018-03-02T17:10:18.757Z,26.03
2018-03-02T17:12:46.186Z,28.00
2018-03-02T17:15:14.396Z,27.73
2018-03-02T17:17:41.860Z,28.77
2018-03-02T17:20:09.304Z,31.70
2018-03-02T17:22:36.760Z,29.00
2018-03-02T17:25:04.317Z,27.37
2018-03-02T17:27:31.739Z,27.83
2018-03-02T17:29:59.960Z,28.70
2018-03-02T17:32:27.511Z,32.77
2018-03-02T17:34:55.012Z,33.63
2018-03-02T17:37:22.526Z,33.17
2018-03-02T17:39:50.109Z,31.00
2018-03-02T17:42:17.568Z,25.67
2018-03-02T17:44:45.105Z,29.73
2018-03-02T17:47:12.532Z,28.10
2018-03-02T17:49:40.118Z,24.10
2018-03-02T17:52:07.538Z,26.13
2018-03-02T17:54:35.780Z,27.10
2018-03-02T17:57:03.292Z,27.83
2018-03-02T17:59:30.763Z,27.40
2018-03-02T18:01:58.205Z,27.67
2018-03-02T18:04:25.657Z,29.57
2018-03-02T18:06:53.119Z,25.60
2018-03-02T18:09:20.549Z,30.17
2018-03-02T18:11:48.858Z,25.70
2018-03-02T18:14:16.321Z,29.23
2018-03-02T18:16:43.871Z,25.00
2018-03-02T18:19:11.327Z,28.70
2018-03-02T18:21:38.733Z,28.33
2018-03-02T18:24:06.258Z,27.00
2018-03-02T18:26:33.701Z,29.10
2018-03-02T18:29:01.138Z,26.60
2018-03-02T18:31:28.580Z,25.63
2018-03-02T18:33:56.844Z,27.93
2018-03-02T18:36:24.364Z,26.60
2018-03-02T18:38:51.907Z,27.90
2018-03-02T18:41:21.804Z,25.90
2018-03-02T18:43:49.487Z,28.37
2018-03-02T18:46:16.988Z,27.10
2018-03-02T18:48:44.424Z,33.72
2018-03-02T18:51:11.866Z,30.23
2018-03-02T18:53:39.423Z,29.43
2018-03-02T18:56:06.832Z,30.20
2018-03-02T18:58:35.056Z,29.37
2018-03-02T19:01:02.518Z,30.00
2018-03-02T19:03:29.964Z,29.60
2018-03-02T19:05:57.380Z,25.60
2018-03-02T19:08:25.616Z,27.90
2018-03-02T19:10:53.056Z,28.33
2018-03-02T19:13:20.525Z,25.97
2018-03-02T19:15:48.001Z,28.20
2018-03-02T19:18:15.433Z,28.60
2018-03-02T19:20:42.865Z,30.15
2018-03-02T19:23:10.337Z,31.20
2018-03-02T19:25:38.599Z,28.53
2018-03-02T19:28:06.084Z,29.97
2018-03-02T19:30:33.636Z,30.17
2018-03-02T19:33:01.106Z,30.33
2018-03-02T19:35:28.553Z,28.77
2018-03-02T19:37:56.032Z,26.03
2018-03-02T19:40:23.474Z,28.90
2018-03-02T19:42:51.024Z,29.90
2018-03-02T19:45:18.444Z,26.87
2018-03-02T19:47:46.650Z,26.90
2018-03-02T19:50:14.084Z,29.60
2018-03-02T19:52:41.576Z,30.27
2018-03-02T19:55:09.017Z,27.40
2018-03-02T19:57:36.495Z,30.53
2018-03-02T20:00:03.927Z,30.63
2018-03-02T20:02:31.349Z,30.33
2018-03-02T20:04:59.666Z,27.73
2018-03-02T20:07:27.130Z,29.03
2018-03-02T20:09:54.785Z,30.73
2018-03-02T20:12:22.209Z,23.20
2018-03-02T20:14:50.518Z,29.70
2018-03-02T20:17:17.975Z,28.70
2018-03-02T20:19:45.456Z,29.87
2018-03-02T20:22:13.097Z,29.37
2018-03-02T20:24:40.654Z,28.87
2018-03-02T20:27:08.084Z,27.90
2018-03-02T20:29:36.287Z,29.57
2018-03-02T20:32:03.717Z,31.00
2018-03-02T20:34:31.200Z,30.47
2018-03-02T20:36:58.761Z,28.73
2018-03-02T20:39:26.180Z,28.57
2018-03-02T20:41:54.417Z,30.77
2018-03-02T20:44:21.860Z,29.40
2018-03-02T20:46:49.410Z,28.73
2018-03-02T20:49:17.117Z,34.70
2018-03-02T20:51:44.751Z,18.03
2018-03-02T20:54:12.168Z,26.63
2018-03-02T20:56:39.718Z,32.23
2018-03-02T20:59:08.027Z,29.53
2018-03-02T21:01:35.587Z,32.07
2018-03-02T21:04:03.002Z,32.63
2018-03-02T21:06:31.232Z,29.17
2018-03-02T21:08:58.777Z,31.90
2018-03-02T21:11:26.250Z,29.17
2018-03-02T21:13:53.698Z,29.80
2018-03-02T21:16:21.132Z,31.30
2018-03-02T21:18:48.625Z,31.80
2018-03-02T21:21:16.177Z,31.87
2018-03-02T21:23:43.622Z,29.27
2018-03-02T21:26:11.079Z,31.60
2018-03-02T21:28:38.513Z,33.00
2018-03-02T21:31:05.945Z,21.90
2018-03-02T21:33:33.450Z,32.17
2018-03-02T21:36:01.075Z,33.90
2018-03-02T21:38:28.496Z,32.10
2018-03-02T21:40:56.724Z,31.57
2018-03-02T21:43:24.267Z,32.33
2018-03-02T21:45:51.683Z,34.10
2018-03-02T21:48:19.180Z,31.77
2018-03-02T21:50:46.635Z,33.07
2018-03-02T21:53:14.049Z,32.87
2018-03-02T21:55:41.654Z,31.80
2018-03-02T21:58:09.116Z,31.07
2018-03-02T22:00:37.388Z,32.03
2018-03-02T22:03:04.855Z,30.57
2018-03-02T22:05:32.324Z,32.60
2018-03-02T22:07:59.867Z,32.33
2018-03-02T22:10:27.332Z,31.53
2018-03-02T22:12:54.953Z,32.63
2018-03-02T22:15:23.259Z,33.53
2018-03-02T22:17:50.744Z,34.23
2018-03-02T22:20:18.290Z,32.90
2018-03-02T22:22:45.833Z,32.77
2018-03-02T22:25:13.257Z,33.63
2018-03-02T22:27:41.477Z,32.67
2018-03-02T22:30:08.929Z,35.57
2018-03-02T22:32:36.368Z,32.97
2018-03-02T22:35:03.834Z,29.10
2018-03-02T22:37:31.395Z,33.47
2018-03-02T22:39:58.954Z,32.87
2018-03-02T22:42:26.380Z,31.37
2018-03-02T22:44:54.641Z,35.23
2018-03-02T22:47:22.145Z,26.73
2018-03-02T22:49:49.617Z,34.83
2018-03-02T22:52:17.162Z,34.80
2018-03-02T22:54:44.576Z,33.33
2018-03-02T22:57:12.090Z,35.63
2018-03-02T22:59:39.528Z,35.53
2018-03-02T23:02:06.948Z,33.33
2018-03-02T23:04:35.162Z,35.43
2018-03-02T23:07:02.725Z,34.27
2018-03-02T23:09:30.144Z,34.17
2018-03-02T23:11:58.366Z,36.23
2018-03-02T23:14:25.813Z,34.97
2018-03-02T23:16:53.281Z,35.43
2018-03-02T23:19:20.931Z,35.33
2018-03-02T23:21:48.349Z,36.70
2018-03-02T23:24:16.556Z,31.07
2018-03-02T23:26:43.992Z,35.23
2018-03-02T23:29:11.476Z,36.43
2018-03-02T23:31:38.893Z,35.07
2018-03-02T23:34:07.124Z,35.97
2018-03-02T23:36:34.614Z,38.13
2018-03-02T23:39:02.127Z,36.93
2018-03-02T23:41:29.555Z,35.53
2018-03-02T23:43:57.764Z,37.37
2018-03-02T23:46:25.232Z,36.03
2018-03-02T23:48:52.680Z,34.90
2018-03-02T23:51:20.137Z,36.73
2018-03-02T23:53:47.687Z,36.10
2018-03-02T23:56:15.108Z,36.77
2018-03-02T23:58:43.422Z,34.30
